Time;durP1;ratioP1;P1;durP2;ratioP2;P2;SDS_P1;SDS_P2;PMS_P1;PMS_P2;Temp;Humidity;BMP_temperature;BMP_pressure;BME280_temperature;BME280_humidity;BME280_pressure;Samples;Min_cycle;Max_cycle;Signal;HPM_P1;HPM_P2
2022/08/18 00:00:32;;;;;;;14.63;10.73;;;;;;;24.82;100.00;98600.22;4369929;32;20405;-72
2022/08/18 00:03:07;;;;;;;15.50;12.13;;;;;;;24.79;100.00;98595.44;4370756;32;20069;-72
2022/08/18 00:05:35;;;;;;;18.65;11.43;;;;;;;24.54;100.00;98606.59;4370784;32;20401;-72
2022/08/18 00:08:02;;;;;;;15.75;11.52;;;;;;;24.47;100.00;98601.66;4369150;32;20031;-72
2022/08/18 00:10:28;;;;;;;24.63;11.75;;;;;;;24.55;100.00;98607.38;4368644;32;20027;-72
2022/08/18 00:12:56;;;;;;;22.98;12.52;;;;;;;24.25;100.00;98600.31;4370843;32;20103;-72
2022/08/18 00:15:23;;;;;;;19.02;11.98;;;;;;;24.44;100.00;98604.34;4370492;32;20052;-72
2022/08/18 00:17:49;;;;;;;25.45;13.93;;;;;;;24.34;100.00;98602.12;4358654;32;20362;-73
2022/08/18 00:20:21;;;;;;;18.45;12.23;;;;;;;24.20;100.00;98570.31;4357976;32;20433;-72
2022/08/18 00:22:49;;;;;;;15.32;12.05;;;;;;;24.17;100.00;98615.00;4356562;32;20066;-72
2022/08/18 00:25:17;;;;;;;21.98;11.75;;;;;;;24.15;100.00;98616.53;4358377;32;20040;-72
2022/08/18 00:27:44;;;;;;;17.90;12.30;;;;;;;24.26;100.00;98601.13;4341621;33;20070;-72
2022/08/18 00:30:14;;;;;;;26.95;12.63;;;;;;;24.50;100.00;98611.19;4355756;32;20028;-72
2022/08/18 00:32:45;;;;;;;21.37;12.60;;;;;;;24.22;100.00;98584.53;4353914;32;20032;-71
2022/08/18 00:35:21;;;;;;;17.37;11.75;;;;;;;24.29;100.00;98628.72;4348852;32;20433;-72
2022/08/18 00:37:48;;;;;;;16.23;11.70;;;;;;;24.10;100.00;98590.06;4341146;33;20054;-72
2022/08/18 00:40:18;;;;;;;17.90;12.05;;;;;;;24.34;100.00;98624.13;4338316;33;20040;-72
2022/08/18 00:42:56;;;;;;;17.45;12.35;;;;;;;24.13;100.00;98619.63;4342061;32;20034;-72
2022/08/18 00:45:35;;;;;;;16.25;12.35;;;;;;;24.21;100.00;98621.41;4325779;33;20048;-71
2022/08/18 00:48:03;;;;;;;21.20;13.20;;;;;;;24.03;100.00;98620.94;4325145;33;20108;-72
2022/08/18 00:50:33;;;;;;;27.00;13.90;;;;;;;23.85;100.00;98587.41;4320637;33;20037;-72
2022/08/18 00:53:05;;;;;;;16.42;12.35;;;;;;;23.98;100.00;98618.44;4311406;33;20021;-72
2022/08/18 00:55:33;;;;;;;24.98;13.45;;;;;;;23.58;100.00;98573.28;4311233;33;20070;-72
2022/08/18 00:58:08;;;;;;;19.98;13.02;;;;;;;23.94;100.00;98612.81;4323553;32;20040;-73
2022/08/18 01:00:36;;;;;;;22.73;13.30;;;;;;;23.75;100.00;98616.16;4358648;32;20082;-72
2022/08/18 01:03:09;;;;;;;25.20;13.80;;;;;;;23.83;100.00;98611.69;4340560;33;20042;-72
2022/08/18 01:05:44;;;;;;;28.08;14.73;;;;;;;23.75;100.00;98609.88;4340310;33;20066;-72
2022/08/18 01:08:15;;;;;;;24.98;14.52;;;;;;;23.70;100.00;98612.88;4339139;33;20106;-72
2022/08/18 01:10:44;;;;;;;21.30;12.95;;;;;;;23.78;100.00;98611.94;4340318;33;20028;-72
2022/08/18 01:13:10;;;;;;;23.08;12.93;;;;;;;23.93;100.00;98605.72;4309510;33;20062;-72
2022/08/18 01:15:36;;;;;;;20.00;13.65;;;;;;;23.92;100.00;98597.84;4313182;33;20054;-72
2022/08/18 01:23:52;;;;;;;29.20;15.85;;;;;;;23.69;100.00;98605.75;4340648;33;20048;-72
2022/08/18 01:26:20;;;;;;;20.17;13.75;;;;;;;23.56;100.00;98602.25;4339049;33;20033;-72
2022/08/18 01:28:48;;;;;;;21.73;13.60;;;;;;;23.29;100.00;98598.28;4340557;33;20097;-72
2022/08/18 01:31:32;;;;;;;27.50;14.68;;;;;;;23.49;100.00;98608.31;4338097;33;20051;-72
2022/08/18 01:34:00;;;;;;;23.85;14.15;;;;;;;23.40;100.00;98613.13;4338971;33;20362;-72
2022/08/18 01:36:36;;;;;;;17.62;13.77;;;;;;;23.37;100.00;98614.66;4339719;33;20040;-72
2022/08/18 01:39:05;;;;;;;28.52;13.90;;;;;;;23.65;100.00;98626.84;4338011;33;20054;-71
2022/08/18 01:41:31;;;;;;;17.33;12.70;;;;;;;23.66;100.00;98622.94;4339637;33;20059;-72
2022/08/18 01:43:59;;;;;;;20.23;13.40;;;;;;;23.76;100.00;98611.47;4351711;32;20381;-71
2022/08/18 01:46:29;;;;;;;25.60;13.32;;;;;;;23.76;100.00;98612.28;4371413;32;20079;-71
2022/08/18 01:48:59;;;;;;;18.85;13.15;;;;;;;23.65;100.00;98610.38;4369523;32;20083;-71
2022/08/18 01:51:29;;;;;;;18.30;14.27;;;;;;;23.66;100.00;98611.94;4371676;32;20035;-71
2022/08/18 01:53:57;;;;;;;20.62;12.35;;;;;;;23.57;100.00;98618.38;4370946;32;20055;-72
2022/08/18 01:56:26;;;;;;;21.77;15.50;;;;;;;23.68;100.00;98609.69;4370898;32;20035;-71
2022/08/18 01:58:54;;;;;;;22.33;17.55;;;;;;;23.40;100.00;98610.38;4370382;32;20057;-71
2022/08/18 02:01:23;;;;;;;26.55;15.90;;;;;;;23.37;100.00;98583.63;4371253;32;20044;-71
2022/08/18 02:03:53;;;;;;;30.02;15.60;;;;;;;23.32;100.00;98564.62;4365400;32;20062;-71
2022/08/18 02:06:19;;;;;;;20.30;14.32;;;;;;;23.24;100.00;98551.84;4371414;32;20048;-71
2022/08/18 02:08:47;;;;;;;23.73;15.70;;;;;;;23.45;100.00;98601.91;4369664;32;20489;-71
2022/08/18 02:11:14;;;;;;;18.87;15.27;;;;;;;23.42;100.00;98586.13;4371433;32;20435;-71
2022/08/18 02:13:41;;;;;;;22.00;15.63;;;;;;;23.30;100.00;98561.44;4369901;32;20070;-72
2022/08/18 02:16:07;;;;;;;23.52;15.75;;;;;;;23.30;100.00;98594.41;4371244;32;20470;-71
2022/08/18 02:18:36;;;;;;;20.02;14.87;;;;;;;23.28;100.00;98572.78;4370059;32;20036;-72
2022/08/18 02:21:15;;;;;;;21.20;14.73;;;;;;;23.31;100.00;98568.50;4371053;32;20083;-71
2022/08/18 02:23:43;;;;;;;22.98;16.27;;;;;;;23.52;100.00;98602.12;4371383;32;20047;-71
2022/08/18 02:26:13;;;;;;;27.70;14.50;;;;;;;23.40;100.00;98599.41;4371597;32;20047;-72
2022/08/18 02:28:39;;;;;;;19.33;14.60;;;;;;;23.50;100.00;98598.94;4369356;32;20077;-72
2022/08/18 02:31:13;;;;;;;23.12;14.57;;;;;;;22.97;100.00;98567.84;4358229;32;20077;-72
2022/08/18 02:33:39;;;;;;;16.67;14.07;;;;;;;23.35;100.00;98602.41;4371337;32;20062;-71
2022/08/18 02:36:06;;;;;;;19.08;14.25;;;;;;;23.29;100.00;98527.66;4369593;32;20104;-72
2022/08/18 02:38:34;;;;;;;24.00;14.87;;;;;;;23.64;100.00;98559.28;4369191;32;20031;-72
2022/08/18 02:41:05;;;;;;;17.40;12.85;;;;;;;23.70;100.00;98590.87;4370441;32;20054;-72
2022/08/18 02:43:31;;;;;;;19.52;14.65;;;;;;;23.60;100.00;98580.34;4371365;32;20068;-72
2022/08/18 02:45:58;;;;;;;21.23;13.70;;;;;;;23.39;100.00;98567.56;4371121;32;20036;-72
2022/08/18 02:48:33;;;;;;;16.87;14.40;;;;;;;23.43;100.00;98582.22;4369693;32;20413;-73
2022/08/18 02:51:01;;;;;;;24.55;15.63;;;;;;;23.43;100.00;98590.47;4371132;32;20388;-73
2022/08/18 02:53:27;;;;;;;24.42;13.93;;;;;;;23.47;100.00;98585.91;4369898;32;20039;-73
2022/08/18 02:55:54;;;;;;;23.33;14.05;;;;;;;23.37;100.00;98547.91;4369253;32;20031;-72
2022/08/18 02:58:21;;;;;;;19.27;14.35;;;;;;;23.40;100.00;98547.22;4381412;32;20421;-73
2022/08/18 03:00:48;;;;;;;23.33;13.75;;;;;;;23.51;100.00;98583.25;4383776;32;20068;-71
2022/08/18 03:03:14;;;;;;;17.30;13.57;;;;;;;23.30;100.00;98566.94;4338195;33;20058;-72
2022/08/18 03:05:40;;;;;;;23.10;15.52;;;;;;;23.01;100.00;98522.09;4339355;33;20048;-71
2022/08/18 03:08:09;;;;;;;21.83;15.65;;;;;;;23.40;100.00;98593.91;4337677;33;20083;-72
2022/08/18 03:10:35;;;;;;;24.92;15.40;;;;;;;23.35;100.00;98591.41;4339304;33;20930;-72
2022/08/18 03:13:02;;;;;;;19.23;14.70;;;;;;;23.33;100.00;98588.22;4339797;33;20040;-71
2022/08/18 03:15:28;;;;;;;20.73;15.38;;;;;;;22.93;100.00;98553.19;4338833;33;20048;-72
2022/08/18 03:17:55;;;;;;;20.00;14.95;;;;;;;22.97;100.00;98565.09;4339121;33;20040;-72
2022/08/18 03:20:21;;;;;;;21.35;14.30;;;;;;;23.07;100.00;98592.09;4337155;33;20028;-72
2022/08/18 03:22:48;;;;;;;24.30;15.27;;;;;;;22.81;100.00;98552.03;4310188;33;21087;-72
2022/08/18 03:25:14;;;;;;;23.65;14.90;;;;;;;23.07;100.00;98586.59;4310267;33;20033;-73
2022/08/18 03:27:47;;;;;;;24.75;14.55;;;;;;;22.91;100.00;98571.94;4310284;33;20497;-72
2022/08/18 03:30:13;;;;;;;20.35;15.13;;;;;;;23.07;100.00;98585.78;4309331;33;20074;-72
2022/08/18 03:32:39;;;;;;;24.33;15.10;;;;;;;23.10;100.00;98568.66;4311378;33;20044;-72
2022/08/18 03:35:07;;;;;;;18.70;14.27;;;;;;;23.24;100.00;98580.09;4322010;33;20062;-72
2022/08/18 03:37:33;;;;;;;25.75;16.33;;;;;;;23.07;100.00;98553.66;4327194;33;20410;-71
2022/08/18 03:40:00;;;;;;;30.98;14.63;;;;;;;22.98;100.00;98558.47;4282752;33;20034;-72
2022/08/18 03:42:26;;;;;;;18.20;14.43;;;;;;;22.80;100.00;98561.44;4281800;33;20072;-73
2022/08/18 03:44:52;;;;;;;20.83;14.75;;;;;;;23.13;100.00;98593.47;4278856;33;20453;-72
2022/08/18 03:47:19;;;;;;;26.67;15.63;;;;;;;23.05;100.00;98577.88;4282848;33;20194;-72
2022/08/18 03:49:45;;;;;;;19.75;15.10;;;;;;;23.06;100.00;98579.50;4283636;33;20066;-73
2022/08/18 03:52:11;;;;;;;23.02;14.32;;;;;;;23.18;100.00;98598.75;4283306;33;20418;-73
2022/08/18 03:54:38;;;;;;;20.10;14.87;;;;;;;23.18;100.00;98593.25;4292326;33;20098;-73
2022/08/18 03:57:08;;;;;;;25.80;15.38;;;;;;;23.11;100.00;98608.72;4268517;33;20049;-72
2022/08/18 03:59:35;;;;;;;23.05;14.35;;;;;;;22.92;100.00;98568.06;4239645;33;20047;-72
2022/08/18 04:02:03;;;;;;;27.48;16.00;;;;;;;23.23;100.00;98607.88;4241266;33;20042;-72
2022/08/18 04:04:30;;;;;;;34.55;15.45;;;;;;;23.35;100.00;98613.37;4241364;33;20035;-72
2022/08/18 04:07:06;;;;;;;19.83;15.27;;;;;;;23.16;100.00;98583.75;4263254;33;20072;-72
2022/08/18 04:09:34;;;;;;;29.77;14.95;;;;;;;23.24;100.00;98607.53;4268246;33;20030;-71
2022/08/18 04:12:11;;;;;;;23.50;15.73;;;;;;;23.33;100.00;98618.44;4287774;33;20040;-71
2022/08/18 04:14:41;;;;;;;26.95;14.73;;;;;;;23.34;100.00;98622.75;4288812;33;20085;-72
2022/08/18 04:17:08;;;;;;;18.70;14.63;;;;;;;23.09;100.00;98589.84;4292800;33;20054;-72
2022/08/18 04:19:35;;;;;;;35.13;16.85;;;;;;;23.23;100.00;98624.38;4297569;33;20063;-72
2022/08/18 04:22:02;;;;;;;20.30;14.40;;;;;;;23.03;100.00;98582.94;4297180;33;20414;-72
2022/08/18 04:24:30;;;;;;;22.35;13.60;;;;;;;23.04;100.00;98576.31;4295227;33;20049;-74
2022/08/18 04:26:59;;;;;;;35.53;14.23;;;;;;;23.20;100.00;98582.72;4293357;33;20120;-73
2022/08/18 04:29:26;;;;;;;26.05;14.45;;;;;;;23.04;100.00;98587.28;4320046;33;20374;-72
2022/08/18 04:31:53;;;;;;;20.45;13.75;;;;;;;22.82;100.00;98559.13;4367896;32;20035;-72
2022/08/18 04:34:21;;;;;;;18.55;14.18;;;;;;;23.06;100.00;98598.72;4367566;32;20039;-73
2022/08/18 04:36:52;;;;;;;21.08;13.73;;;;;;;23.11;100.00;98619.69;4372326;32;20133;-72
2022/08/18 04:39:20;;;;;;;25.40;14.63;;;;;;;23.07;100.00;98619.56;4372637;32;20443;-72
2022/08/18 04:41:47;;;;;;;24.60;14.10;;;;;;;23.00;100.00;98625.59;4372051;32;20116;-72
2022/08/18 04:44:16;;;;;;;18.70;13.98;;;;;;;23.20;100.00;98623.91;4370005;32;20069;-74
2022/08/18 04:46:48;;;;;;;29.60;14.15;;;;;;;23.21;100.00;98609.06;4370627;32;20047;-71
2022/08/18 04:49:17;;;;;;;23.30;14.32;;;;;;;23.25;100.00;98624.81;4371049;32;20039;-70
2022/08/18 04:54:37;;;;;;;26.27;15.70;;;;;;;22.99;100.00;98579.25;4371108;32;20040;-71
2022/08/18 04:57:12;;;;;;;16.35;14.57;;;;;;;23.23;100.00;98600.44;4371790;32;20177;-71
2022/08/18 04:59:43;;;;;;;28.62;15.32;;;;;;;23.55;100.00;98623.44;4369728;32;20056;-71
2022/08/18 05:02:28;;;;;;;27.85;14.35;;;;;;;23.46;100.00;98630.19;4368588;32;20047;-75
2022/08/18 05:04:54;;;;;;;23.92;15.30;;;;;;;23.10;100.00;98580.44;4367527;32;20027;-70
2022/08/18 05:07:24;;;;;;;26.77;14.48;;;;;;;23.61;100.00;98632.22;4362582;32;20095;-72
2022/08/18 05:09:53;;;;;;;29.73;15.02;;;;;;;23.58;100.00;98620.00;4359201;32;20831;-70
2022/08/18 05:12:21;;;;;;;31.90;15.65;;;;;;;23.90;100.00;98644.91;4353619;32;20073;-71
2022/08/18 05:14:48;;;;;;;28.08;14.20;;;;;;;23.75;100.00;98629.91;4354583;32;20435;-72
2022/08/18 05:17:15;;;;;;;29.63;15.13;;;;;;;23.89;100.00;98634.25;4353021;32;20040;-71
2022/08/18 05:19:45;;;;;;;38.10;18.00;;;;;;;23.85;100.00;98628.63;4353351;32;20448;-73
2022/08/18 05:22:18;;;;;;;23.48;15.43;;;;;;;23.98;100.00;98639.59;4354664;32;20032;-71
2022/08/18 05:24:45;;;;;;;18.92;14.82;;;;;;;24.05;100.00;98637.88;4353487;32;20066;-70
2022/08/18 05:27:12;;;;;;;15.93;13.98;;;;;;;23.96;100.00;98637.22;4360554;32;20436;-74
2022/08/18 05:29:38;;;;;;;27.05;14.13;;;;;;;24.03;100.00;98620.09;4361257;32;20094;-71
2022/08/18 05:32:06;;;;;;;24.10;15.27;;;;;;;24.03;100.00;98636.59;4361457;32;20401;-71
2022/08/18 05:34:33;;;;;;;16.73;13.25;;;;;;;24.32;100.00;98640.16;4367711;32;20381;-70
2022/08/18 05:37:04;;;;;;;24.98;14.02;;;;;;;24.43;100.00;98638.53;4369872;32;20032;-71
2022/08/18 05:40:03;;;;;;;18.33;13.13;;;;;;;24.49;100.00;98626.09;4364056;32;20215;-70
2022/08/18 05:42:35;;;;;;;26.42;12.93;;;;;;;24.40;100.00;98625.47;4359030;32;20091;-71
2022/08/18 05:45:19;;;;;;;16.42;12.75;;;;;;;24.41;100.00;98624.31;4373148;32;20081;-73
2022/08/18 05:47:48;;;;;;;22.50;12.73;;;;;;;24.75;100.00;98630.34;4362670;32;20028;-69
2022/08/18 05:50:23;;;;;;;28.85;12.95;;;;;;;24.24;100.00;98568.47;4358715;32;20039;-72
2022/08/18 05:52:52;;;;;;;22.00;12.75;;;;;;;24.68;100.00;98641.16;4362859;32;20354;-69
2022/08/18 05:58:49;;;;;;;31.20;11.80;;;;;;;24.79;100.00;98640.28;4336883;33;20032;-69
2022/08/18 06:01:29;;;;;;;27.25;13.35;;;;;;;24.97;100.00;98613.22;4334392;33;20064;-69
2022/08/18 06:04:14;;;;;;;24.83;12.37;;;;;;;25.34;100.00;98648.75;4330050;33;20062;-68
2022/08/18 06:06:56;;;;;;;31.73;13.85;;;;;;;24.89;100.00;98592.16;4331660;33;20101;-71
2022/08/18 06:09:30;;;;;;;21.05;11.23;;;;;;;25.34;100.00;98645.97;4325514;32;20054;-71
2022/08/18 06:12:07;;;;;;;22.52;11.82;;;;;;;25.43;100.00;98639.47;4337105;32;20459;-70
2022/08/18 06:14:37;;;;;;;23.83;11.20;;;;;;;25.22;100.00;98662.56;4337905;33;20036;-71
2022/08/18 06:17:31;;;;;;;23.92;11.80;;;;;;;25.30;100.00;98636.81;4337818;33;20048;-71
2022/08/18 06:20:08;;;;;;;23.35;12.23;;;;;;;25.40;100.00;98663.03;4334262;33;20048;-72
2022/08/18 06:22:42;;;;;;;15.98;12.10;;;;;;;25.25;100.00;98628.81;4327516;33;20048;-70
2022/08/18 06:25:20;;;;;;;19.33;11.95;;;;;;;25.43;100.00;98661.53;4326396;33;20059;-70
2022/08/18 06:27:54;;;;;;;22.05;11.98;;;;;;;25.15;100.00;98621.09;4325552;33;20058;-70
2022/08/18 06:30:31;;;;;;;16.90;11.90;;;;;;;25.28;100.00;98654.88;4338292;33;20048;-70
2022/08/18 06:33:34;;;;;;;27.92;13.20;;;;;;;25.35;100.00;98649.53;4331221;33;20048;-70
2022/08/18 06:36:14;;;;;;;23.02;11.45;;;;;;;25.40;100.00;98651.22;4329138;33;20029;-69
2022/08/18 06:38:50;;;;;;;21.30;13.13;;;;;;;25.47;100.00;98659.66;4331078;33;20048;-71
2022/08/18 06:41:23;;;;;;;21.33;11.82;;;;;;;25.55;100.00;98664.19;4328561;33;20062;-71
2022/08/18 06:44:01;;;;;;;22.52;12.50;;;;;;;25.73;100.00;98670.88;4330184;33;20040;-71
2022/08/18 06:46:53;;;;;;;20.42;11.73;;;;;;;25.87;100.00;98658.56;4331164;33;20599;-71
2022/08/18 06:49:25;;;;;;;;;;;;;;;25.97;100.00;98663.53;4337240;33;20063;-71
2022/08/18 06:51:52;;;;;;;23.80;11.30;;;;;;;26.21;100.00;98667.19;4337659;33;20296;-71
2022/08/18 06:54:18;;;;;;;17.45;10.80;;;;;;;26.21;100.00;98667.19;4345245;32;20070;-70
2022/08/18 06:56:50;;;;;;;15.48;10.90;;;;;;;26.29;100.00;98649.59;4346946;33;20036;-72
2022/08/18 06:59:25;;;;;;;16.25;10.68;;;;;;;26.12;100.00;98630.72;4361242;32;20065;-71
2022/08/18 07:02:22;;;;;;;15.77;10.40;;;;;;;26.46;100.00;98662.94;4368270;32;20039;-71
2022/08/18 07:05:07;;;;;;;19.20;10.07;;;;;;;26.48;100.00;98664.56;4349234;32;20031;-70
2022/08/18 07:07:39;;;;;;;21.15;10.98;;;;;;;26.53;100.00;98680.81;4369081;32;20035;-72
2022/08/18 07:10:33;;;;;;;15.50;11.90;;;;;;;26.52;100.00;98681.97;4369337;32;20107;-70
2022/08/18 07:13:13;;;;;;;24.73;12.02;;;;;;;26.20;100.00;98682.13;4369061;32;20035;-72
2022/08/18 07:15:42;;;;;;;23.17;11.23;;;;;;;25.89;100.00;98646.00;4373529;32;20799;-70
2022/08/18 07:18:10;;;;;;;28.77;12.15;;;;;;;26.32;100.00;98673.72;4370382;32;20109;-70
2022/08/18 07:20:43;;;;;;;15.60;9.25;;;;;;;26.48;100.00;98681.91;4369727;32;20105;-70
2022/08/18 07:23:23;;;;;;;16.95;9.80;;;;;;;26.41;100.00;98682.56;4366915;32;20428;-70
2022/08/18 07:25:58;;;;;;;21.85;11.20;;;;;;;26.65;100.00;98686.22;4368576;32;20027;-70
2022/08/18 07:28:35;;;;;;;18.80;10.18;;;;;;;26.72;100.00;98680.81;4369656;32;20035;-72
2022/08/18 07:31:42;;;;;;;20.73;10.98;;;;;;;26.82;100.00;98685.75;4356436;32;20067;-71
2022/08/18 07:34:19;;;;;;;19.40;10.43;;;;;;;26.90;100.00;98685.84;4348411;32;20049;-70
2022/08/18 07:36:53;;;;;;;14.02;10.15;;;;;;;26.89;100.00;98684.28;4350966;32;20039;-70
2022/08/18 07:39:31;;;;;;;15.02;10.93;;;;;;;26.41;100.00;98649.44;4363294;32;20066;-71
2022/08/18 07:42:37;;;;;;;19.08;10.98;;;;;;;26.75;100.00;98688.38;4366280;32;20840;-70
2022/08/18 07:45:11;;;;;;;14.90;10.55;;;;;;;26.64;100.00;98679.06;4364085;32;21464;-71
2022/08/18 07:47:49;;;;;;;14.90;10.50;;;;;;;26.66;100.00;98657.41;4365647;32;20088;-70
2022/08/18 07:50:17;;;;;;;26.15;11.52;;;;;;;26.86;100.00;98657.41;4371604;32;20055;-70
2022/08/18 07:52:56;;;;;;;17.25;9.80;;;;;;;27.11;100.00;98655.84;4371089;32;20061;-71
2022/08/18 07:55:28;;;;;;;15.10;10.50;;;;;;;27.21;100.00;98667.47;4367690;32;20093;-70
2022/08/18 07:58:28;;;;;;;16.98;10.45;;;;;;;27.25;100.00;98690.41;4353443;32;20020;-71
2022/08/18 08:01:22;;;;;;;19.40;10.00;;;;;;;27.06;100.00;98683.78;4340167;32;20036;-70
2022/08/18 08:03:58;;;;;;;15.50;10.50;;;;;;;27.05;100.00;98643.50;4339794;32;20033;-72
2022/08/18 08:06:37;;;;;;;21.00;9.30;;;;;;;27.48;100.00;98677.38;4340397;33;20107;-71
2022/08/18 08:09:17;;;;;;;17.80;9.02;;;;;;;27.40;100.00;98692.25;4326330;33;20028;-69
2022/08/18 08:12:03;;;;;;;20.35;9.48;;;;;;;27.31;100.00;98694.47;4325724;33;20086;-70
2022/08/18 08:14:48;;;;;;;13.85;9.90;;;;;;;27.66;100.00;98698.97;4325036;33;20415;-71
2022/08/18 08:17:41;;;;;;;14.07;9.57;;;;;;;27.77;100.00;98694.41;4320700;33;20099;-72
2022/08/18 08:20:28;;;;;;;11.57;9.70;;;;;;;27.49;100.00;98656.06;4324855;33;20084;-72
2022/08/18 08:23:16;;;;;;;14.15;9.52;;;;;;;27.76;100.00;98654.06;4325786;33;20056;-71
2022/08/18 08:25:48;;;;;;;19.55;10.23;;;;;;;28.02;100.00;98655.25;4323215;33;20186;-72
2022/08/18 08:28:38;;;;;;;17.40;10.07;;;;;;;28.22;100.00;98675.25;4324450;33;20088;-72
2022/08/18 08:31:10;;;;;;;19.45;9.50;;;;;;;27.91;100.00;98686.28;4324783;33;20033;-72
2022/08/18 08:33:58;;;;;;;17.40;10.60;;;;;;;28.07;100.00;98677.06;4323481;33;20116;-71
2022/08/18 08:36:37;;;;;;;21.08;9.93;;;;;;;27.90;100.00;98676.38;4324272;33;20052;-72
2022/08/18 08:39:29;;;;;;;15.73;9.38;;;;;;;27.63;100.00;98678.38;4319070;33;20514;-72
2022/08/18 08:42:00;;;;;;;17.00;9.57;;;;;;;27.83;100.00;98642.31;4338172;33;20213;-72
2022/08/18 08:44:45;;;;;;;16.85;9.57;;;;;;;28.00;100.00;98690.78;4336208;33;20070;-72
2022/08/18 08:47:20;;;;;;;17.50;9.45;;;;;;;27.85;100.00;98640.75;4337227;33;20523;-71
2022/08/18 08:49:56;;;;;;;18.15;9.75;;;;;;;28.30;100.00;98670.59;4338945;33;20103;-71
2022/08/18 08:52:41;;;;;;;25.60;10.00;;;;;;;28.21;100.00;98674.47;4336556;33;20028;-72
2022/08/18 08:55:24;;;;;;;19.85;11.30;;;;;;;27.72;100.00;98642.19;4336867;33;20194;-72
2022/08/18 08:57:54;;;;;;;17.62;9.57;;;;;;;27.98;100.00;98682.06;4337161;33;20428;-72
2022/08/18 09:00:21;;;;;;;18.52;10.43;;;;;;;28.10;100.00;98679.06;4339217;33;20060;-72
2022/08/18 09:03:31;;;;;;;14.75;9.93;;;;;;;28.39;100.00;98679.41;4340922;33;20495;-71
2022/08/18 09:06:23;;;;;;;20.08;11.18;;;;;;;27.82;100.00;98685.75;4324547;32;20087;-73
2022/08/18 09:09:10;;;;;;;15.40;11.20;;;;;;;27.65;100.00;98686.31;4365593;32;20036;-73
2022/08/18 09:11:56;;;;;;;11.10;8.63;;;;;;;28.21;100.00;98691.06;4368731;32;20143;-71
2022/08/18 09:14:59;;;;;;;18.00;8.68;;;;;;;28.42;100.00;98684.19;4369963;32;20039;-71
2022/08/18 09:17:38;;;;;;;18.27;9.50;;;;;;;28.26;100.00;98640.91;4364595;32;20079;-74
2022/08/18 09:20:43;;;;;;;14.65;9.88;;;;;;;27.99;100.00;98662.31;4369911;32;20178;-72
2022/08/18 09:23:45;;;;;;;22.08;8.80;;;;;;;28.40;100.00;98692.88;4368801;32;20059;-68
2022/08/18 09:26:23;;;;;;;16.05;9.30;;;;;;;28.66;100.00;98690.41;4327207;33;20103;-71
2022/08/18 09:29:16;;;;;;;19.77;9.90;;;;;;;28.82;100.00;98690.97;4339986;33;20040;-70
2022/08/18 09:32:17;;;;;;;12.85;9.00;;;;;;;28.65;100.00;98669.44;4335129;33;20024;-71
2022/08/18 09:35:31;;;;;;;15.75;9.10;;;;;;;28.55;100.00;98693.81;4340798;33;20064;-70
2022/08/18 09:41:33;;;;;;;14.23;9.18;;;;;;;28.66;100.00;98693.16;4341179;32;20036;-71
2022/08/18 09:44:08;;;;;;;18.20;9.18;;;;;;;28.38;100.00;98666.72;4352583;32;20028;-71
2022/08/18 09:46:53;;;;;;;10.75;8.63;;;;;;;28.27;100.00;98695.09;4343784;33;20044;-70
2022/08/18 09:49:25;;;;;;;18.87;8.73;;;;;;;28.18;100.00;98702.09;4327016;33;20063;-70
2022/08/18 09:52:19;;;;;;;11.27;9.68;;;;;;;28.79;100.00;98692.53;4323600;33;20066;-70
2022/08/18 09:55:07;;;;;;;14.40;8.80;;;;;;;28.89;100.00;98668.88;4310179;33;20045;-70
2022/08/18 09:57:45;;;;;;;26.77;9.07;;;;;;;28.07;100.00;98547.78;4326170;33;20067;-72
2022/08/18 10:00:25;;;;;;;15.43;8.20;;;;;;;28.80;100.00;98699.66;4325293;33;20041;-71
2022/08/18 10:02:53;;;;;;;33.45;10.95;;;;;;;29.21;100.00;98664.81;4307594;33;20040;-71
2022/08/18 10:05:29;;;;;;;20.75;8.85;;;;;;;29.33;100.00;98693.03;4310503;33;20209;-72
2022/08/18 10:08:23;;;;;;;15.50;8.98;;;;;;;29.21;100.00;98690.56;4309870;33;20041;-71
2022/08/18 10:10:57;;;;;;;12.10;7.62;;;;;;;29.07;100.00;98684.84;4309247;33;20065;-70
2022/08/18 10:14:12;;;;;;;18.87;8.40;;;;;;;29.31;100.00;98689.03;4309880;33;20185;-69
2022/08/18 10:17:00;;;;;;;16.05;9.18;;;;;;;28.99;100.00;98618.31;4296793;33;20033;-71
2022/08/18 10:19:28;;;;;;;19.62;8.18;;;;;;;28.69;100.00;98643.38;4306284;33;20041;-75
2022/08/18 10:21:54;;;;;;;11.90;8.18;;;;;;;28.88;100.00;98672.84;4309657;33;20506;-71
2022/08/18 10:24:27;;;;;;;18.00;8.20;;;;;;;29.09;100.00;98676.97;4308839;33;20348;-71
2022/08/18 10:26:54;;;;;;;11.48;7.97;;;;;;;29.40;100.00;98674.87;4309825;33;20505;-72
2022/08/18 10:29:22;;;;;;;18.87;8.68;;;;;;;29.74;100.00;98683.00;4309791;33;20025;-71
2022/08/18 10:31:55;;;;;;;8.52;7.65;;;;;;;29.67;100.00;98651.25;4311405;33;20423;-76
2022/08/18 10:34:47;;;;;;;14.38;8.38;;;;;;;30.05;100.00;98674.09;4335261;33;20087;-71
2022/08/18 10:37:18;;;;;;;9.05;8.10;;;;;;;30.31;100.00;98683.31;4339074;33;20557;-71
2022/08/18 10:39:47;;;;;;;;;;;;;;;29.84;100.00;98693.41;4330176;33;20056;-71
2022/08/18 10:42:26;;;;;;;11.90;8.00;;;;;;;30.26;100.00;98680.91;4334339;33;20331;-72
2022/08/18 10:45:14;;;;;;;16.50;9.20;;;;;;;30.54;100.00;98651.66;4326595;33;20071;-71
2022/08/18 10:47:41;;;;;;;8.95;7.90;;;;;;;30.66;100.00;98681.84;4333693;33;20060;-70
2022/08/18 10:50:20;;;;;;;12.15;7.15;;;;;;;30.81;100.00;98681.87;4329047;33;20222;-71
2022/08/18 10:53:01;;;;;;;8.75;7.85;;;;;;;30.63;100.00;98679.88;4311256;33;20025;-70
2022/08/18 10:55:39;;;;;;;;;;;;;;;30.76;100.00;98681.09;4311199;33;20062;-71
2022/08/18 10:58:20;;;;;;;17.58;7.50;;;;;;;31.09;100.00;98681.94;4313043;33;19958;-74
2022/08/18 11:00:55;;;;;;;20.00;7.07;;;;;;;30.19;100.00;98675.34;4328525;33;20416;-73
2022/08/18 11:03:44;;;;;;;12.32;7.75;;;;;;;29.97;100.00;98675.25;4332888;33;20085;-71
2022/08/18 11:06:18;;;;;;;13.00;8.85;;;;;;;30.47;100.00;98673.88;4334216;33;20036;-75
2022/08/18 11:08:51;;;;;;;21.60;7.95;;;;;;;30.23;100.00;98626.16;4332000;33;20044;-72
2022/08/18 11:11:25;;;;;;;12.90;7.50;;;;;;;30.96;100.00;98667.63;4337191;33;20092;-72
2022/08/18 11:13:51;;;;;;;25.67;7.80;;;;;;;30.59;100.00;98631.84;4337434;33;20069;-73
2022/08/18 11:16:55;;;;;;;9.57;7.47;;;;;;;30.52;100.00;98665.16;4339585;33;20455;-73
2022/08/18 11:19:23;;;;;;;9.13;7.45;;;;;;;30.70;100.00;98665.19;4331081;33;20070;-72
2022/08/18 11:21:51;;;;;;;9.48;7.12;;;;;;;30.49;100.00;98638.97;4335449;32;20070;-71
2022/08/18 11:24:24;;;;;;;10.18;7.00;;;;;;;30.63;100.00;98632.62;4322347;33;20070;-71
2022/08/18 11:26:57;;;;;;;18.70;6.65;;;;;;;30.26;100.00;98630.94;4287191;33;20196;-71
2022/08/18 11:29:35;;;;;;;16.45;7.15;;;;;;;30.57;100.00;98651.69;4288279;33;20075;-71
2022/08/18 11:32:24;;;;;;;10.25;8.27;;;;;;;30.63;100.00;98648.53;4284418;33;20037;-71
2022/08/18 11:35:09;;;;;;;11.12;6.70;;;;;;;30.98;100.00;98647.78;4281206;33;20390;-71
2022/08/18 11:37:54;;;;;;;9.90;6.97;;;;;;;31.11;100.00;98648.19;4285020;33;20046;-71
2022/08/18 11:40:25;;;;;;;14.30;6.90;;;;;;;30.43;100.00;98641.34;4287001;33;20490;-69
2022/08/18 11:42:58;;;;;;;14.63;7.87;;;;;;;30.14;100.00;98620.19;4283149;33;20054;-71
2022/08/18 11:45:30;;;;;;;10.32;7.68;;;;;;;30.60;100.00;98653.69;4257207;33;20076;-70
2022/08/18 11:48:18;;;;;;;12.20;8.02;;;;;;;30.75;100.00;98617.59;4266787;33;20046;-70
2022/08/18 11:51:02;;;;;;;14.57;6.03;;;;;;;31.20;100.00;98633.91;4267223;33;20173;-70
2022/08/18 11:53:47;;;;;;;12.57;7.45;;;;;;;31.46;96.07;98654.91;4267044;33;20412;-71
2022/08/18 11:56:14;;;;;;;15.35;7.05;;;;;;;31.43;100.00;98648.19;4267737;33;20068;-70
2022/08/18 11:58:56;;;;;;;11.82;7.03;;;;;;;30.99;100.00;98646.59;4269202;33;20054;-70
2022/08/18 12:01:50;;;;;;;10.80;7.07;;;;;;;30.71;97.86;98631.47;4279273;33;20112;-70